createdAt,value
2022-08-21T00:00:56.491Z,16.20
2022-08-21T00:03:02.929Z,16.10
2022-08-21T00:05:08.058Z,16.10
2022-08-21T00:07:11.525Z,16.10
2022-08-21T00:09:15.127Z,16.00
2022-08-21T00:11:19.572Z,16.10
2022-08-21T00:13:23.203Z,16.00
2022-08-21T00:15:29.805Z,16.00
2022-08-21T00:17:33.278Z,16.00
2022-08-21T00:21:55.270Z,16.00
2022-08-21T00:23:58.871Z,16.00
2022-08-21T00:26:02.580Z,15.90
2022-08-21T00:28:07.299Z,16.00
2022-08-21T00:30:23.097Z,16.00
2022-08-21T00:32:22.635Z,16.00
2022-08-21T00:34:26.552Z,16.00
2022-08-21T00:36:30.582Z,16.00
2022-08-21T00:38:34.074Z,16.00
2022-08-21T00:42:56.258Z,16.00
2022-08-21T00:44:59.945Z,16.00
2022-08-21T00:47:03.585Z,16.00
2022-08-21T00:49:07.999Z,16.00
2022-08-21T00:51:14.996Z,16.10
2022-08-21T00:53:18.808Z,16.10
2022-08-21T00:55:24.016Z,16.00
2022-08-21T00:57:31.455Z,16.00
2022-08-21T01:01:54.593Z,16.00
2022-08-21T01:03:58.091Z,16.00
2022-08-21T01:06:02.100Z,16.00
2022-08-21T01:08:07.210Z,16.00
2022-08-21T01:10:23.700Z,15.90
2022-08-21T01:12:17.927Z,15.90
2022-08-21T01:14:21.748Z,15.90
2022-08-21T01:16:25.958Z,15.90
2022-08-21T01:18:29.979Z,15.90
2022-08-21T01:20:34.370Z,15.90
2022-08-21T01:22:38.081Z,16.00
2022-08-21T01:27:01.011Z,15.80
2022-08-21T01:29:08.414Z,15.80
2022-08-21T01:31:15.131Z,15.80
2022-08-21T01:33:20.917Z,15.80
2022-08-21T01:35:24.769Z,15.90
2022-08-21T01:37:28.384Z,15.90
2022-08-21T01:39:32.264Z,15.90
2022-08-21T01:41:36.059Z,15.90
2022-08-21T01:43:40.002Z,15.90
2022-08-21T01:48:00.303Z,16.00
2022-08-21T01:50:08.281Z,16.00
2022-08-21T01:52:12.607Z,16.00
2022-08-21T01:54:16.266Z,16.00
2022-08-21T01:56:20.069Z,16.10
2022-08-21T01:58:23.942Z,16.00
2022-08-21T02:00:27.614Z,16.00
2022-08-21T02:02:31.207Z,16.10
2022-08-21T02:04:34.859Z,16.10
2022-08-21T02:06:38.660Z,16.10
2022-08-21T02:08:42.263Z,16.10
2022-08-21T02:10:48.998Z,16.10
2022-08-21T02:12:52.563Z,16.10
2022-08-21T02:14:56.115Z,16.10
2022-08-21T02:17:23.891Z,16.10
2022-08-21T02:19:31.438Z,16.20
2022-08-21T02:21:36.897Z,16.10
2022-08-21T02:23:56.565Z,16.10
2022-08-21T02:26:13.348Z,16.20
2022-08-21T02:28:17.227Z,16.20
2022-08-21T02:30:23.168Z,16.10
2022-08-21T02:32:27.153Z,16.20
2022-08-21T02:34:30.824Z,16.30
2022-08-21T02:36:34.383Z,16.30
2022-08-21T02:38:38.898Z,16.20
2022-08-21T02:40:48.262Z,16.30
2022-08-21T02:42:51.087Z,16.30
2022-08-21T02:44:54.677Z,16.40
2022-08-21T02:46:58.240Z,16.30
2022-08-21T02:49:01.833Z,16.40
2022-08-21T02:51:08.010Z,16.30
2022-08-21T02:53:15.943Z,16.20
2022-08-21T02:55:20.840Z,16.20
2022-08-21T02:57:24.404Z,16.30
2022-08-21T02:59:28.126Z,16.30
2022-08-21T03:01:32.098Z,16.20
2022-08-21T03:03:35.647Z,16.10
2022-08-21T03:05:40.380Z,16.00
2022-08-21T03:07:44.813Z,16.00
2022-08-21T03:09:55.509Z,15.90
2022-08-21T03:11:54.392Z,15.90
2022-08-21T03:16:15.393Z,15.80
2022-08-21T03:18:19.935Z,15.80
2022-08-21T03:20:25.788Z,15.80
2022-08-21T03:22:29.495Z,15.80
2022-08-21T03:24:34.724Z,15.70
2022-08-21T03:26:40.607Z,15.70
2022-08-21T03:28:44.887Z,15.60
2022-08-21T03:30:49.923Z,15.60
2022-08-21T03:32:54.161Z,15.60
2022-08-21T03:35:00.583Z,15.40
2022-08-21T03:37:05.001Z,15.40
2022-08-21T03:39:08.598Z,15.40
2022-08-21T03:41:12.201Z,15.40
2022-08-21T03:43:15.691Z,15.30
2022-08-21T03:45:20.059Z,15.30
2022-08-21T03:47:23.611Z,15.30
2022-08-21T03:49:27.456Z,15.30
2022-08-21T03:51:32.692Z,15.30
2022-08-21T03:53:37.272Z,15.30
2022-08-21T03:55:40.879Z,15.30
2022-08-21T03:57:44.685Z,15.20
2022-08-21T03:59:48.291Z,15.20
2022-08-21T04:04:12.526Z,15.20
2022-08-21T04:06:18.402Z,15.20
2022-08-21T04:08:22.021Z,15.20
2022-08-21T04:10:26.367Z,15.10
2022-08-21T04:12:30.633Z,15.00
2022-08-21T04:14:34.251Z,15.10
2022-08-21T04:16:37.767Z,15.00
2022-08-21T04:18:41.495Z,15.00
2022-08-21T04:20:49.978Z,15.00
2022-08-21T04:25:10.577Z,15.00
2022-08-21T04:27:14.189Z,14.90
2022-08-21T04:29:17.855Z,14.90
2022-08-21T04:31:21.314Z,14.90
2022-08-21T04:33:25.152Z,14.80
2022-08-21T04:35:30.414Z,14.80
2022-08-21T04:37:34.203Z,14.80
2022-08-21T04:39:39.649Z,14.80
2022-08-21T04:41:43.420Z,14.70
2022-08-21T04:43:46.983Z,14.70
2022-08-21T04:45:51.809Z,14.70
2022-08-21T04:47:57.511Z,14.70
2022-08-21T04:50:01.116Z,14.70
2022-08-21T04:52:05.302Z,14.70
2022-08-21T04:54:12.773Z,14.70
2022-08-21T04:56:21.474Z,14.60
2022-08-21T04:58:29.393Z,14.60
2022-08-21T05:00:34.946Z,14.60
2022-08-21T05:02:39.677Z,14.60
2022-08-21T05:04:46.743Z,14.60
2022-08-21T05:06:51.566Z,14.60
2022-08-21T05:09:01.727Z,14.50
2022-08-21T05:11:03.235Z,14.60
2022-08-21T05:13:08.026Z,14.60
2022-08-21T05:15:13.472Z,14.60
2022-08-21T05:17:17.366Z,14.60
2022-08-21T05:19:20.961Z,14.60
2022-08-21T05:21:24.536Z,14.70
2022-08-21T05:23:28.103Z,14.70
2022-08-21T05:25:31.738Z,14.70
2022-08-21T05:27:35.224Z,14.60
2022-08-21T05:29:38.871Z,14.60
2022-08-21T05:31:42.736Z,14.60
2022-08-21T05:33:46.298Z,14.60
2022-08-21T05:35:52.724Z,14.60
2022-08-21T05:37:56.782Z,14.70
2022-08-21T05:40:20.550Z,14.60
2022-08-21T05:44:23.674Z,14.80
2022-08-21T05:46:27.305Z,14.70
2022-08-21T05:48:31.371Z,14.80
2022-08-21T05:50:35.355Z,14.80
2022-08-21T05:52:38.925Z,14.80
2022-08-21T05:54:42.435Z,14.90
2022-08-21T05:56:46.060Z,14.90
2022-08-21T05:58:49.771Z,14.90
2022-08-21T06:00:53.789Z,14.80
2022-08-21T06:05:16.559Z,14.90
2022-08-21T06:07:20.592Z,14.90
2022-08-21T06:09:24.120Z,15.00
2022-08-21T06:11:29.106Z,15.00
2022-08-21T06:13:33.184Z,15.20
2022-08-21T06:15:36.770Z,15.30
2022-08-21T06:17:40.449Z,15.30
2022-08-21T06:19:44.054Z,15.40
2022-08-21T06:21:49.492Z,15.40
2022-08-21T06:23:53.118Z,15.60
2022-08-21T06:25:56.931Z,15.60
2022-08-21T06:28:04.808Z,15.70
2022-08-21T06:30:11.085Z,15.90
2022-08-21T06:32:14.886Z,16.00
2022-08-21T06:34:20.200Z,16.10
2022-08-21T06:36:23.975Z,16.10
2022-08-21T06:38:27.675Z,16.20
2022-08-21T06:40:34.831Z,16.30
2022-08-21T06:42:38.005Z,16.40
2022-08-21T06:44:42.074Z,16.50
2022-08-21T06:46:47.604Z,16.60
2022-08-21T06:48:50.987Z,16.70
2022-08-21T06:50:56.348Z,16.70
2022-08-21T06:53:05.960Z,16.90
2022-08-21T06:55:11.246Z,16.90
2022-08-21T06:57:15.603Z,17.10
2022-08-21T06:59:19.209Z,17.30
2022-08-21T07:01:26.020Z,17.30
2022-08-21T07:03:32.643Z,17.50
2022-08-21T07:05:36.227Z,17.60
2022-08-21T07:07:39.788Z,17.50
2022-08-21T07:09:44.149Z,17.60
2022-08-21T07:11:50.795Z,17.60
2022-08-21T07:13:56.387Z,17.60
2022-08-21T07:16:03.891Z,17.70
2022-08-21T07:18:05.655Z,17.70
2022-08-21T07:20:10.502Z,17.80
2022-08-21T07:22:16.891Z,17.90
2022-08-21T07:24:20.402Z,18.00
2022-08-21T07:26:24.898Z,18.20
2022-08-21T07:28:29.008Z,18.20
2022-08-21T07:30:32.619Z,18.30
2022-08-21T07:32:36.717Z,18.30
2022-08-21T07:34:40.323Z,18.40
2022-08-21T07:36:44.114Z,18.60
2022-08-21T07:38:48.472Z,18.70
2022-08-21T07:40:56.488Z,18.80
2022-08-21T07:43:00.467Z,18.90
2022-08-21T07:47:41.470Z,19.00
2022-08-21T07:49:30.929Z,19.00
2022-08-21T07:51:36.626Z,19.00
2022-08-21T07:53:43.354Z,19.10
2022-08-21T07:55:47.349Z,19.20
2022-08-21T07:57:52.569Z,19.30
2022-08-21T07:59:57.447Z,19.30
2022-08-21T08:02:01.310Z,19.20
2022-08-21T08:04:06.264Z,19.40
2022-08-21T08:06:12.941Z,19.40
2022-08-21T08:08:17.798Z,19.50
2022-08-21T08:10:23.437Z,19.60
2022-08-21T08:12:29.343Z,19.70
2022-08-21T08:14:34.928Z,19.70
2022-08-21T08:16:39.434Z,19.70
2022-08-21T08:18:45.474Z,19.90
2022-08-21T08:20:50.354Z,20.00
2022-08-21T08:22:55.672Z,20.10
2022-08-21T08:25:00.423Z,20.20
2022-08-21T08:27:04.263Z,20.40
2022-08-21T08:29:07.868Z,20.50
2022-08-21T08:31:11.660Z,20.70
2022-08-21T08:33:16.776Z,20.80
2022-08-21T08:35:23.655Z,20.90
2022-08-21T08:37:25.826Z,21.00
2022-08-21T08:39:31.256Z,21.20
2022-08-21T08:41:37.629Z,21.60
2022-08-21T08:43:46.146Z,21.80
2022-08-21T08:45:52.602Z,22.10
2022-08-21T08:47:59.777Z,22.20
2022-08-21T08:50:07.816Z,22.20
2022-08-21T08:52:16.803Z,22.20
2022-08-21T08:54:25.893Z,22.50
2022-08-21T08:56:32.679Z,22.50
2022-08-21T08:58:40.041Z,22.50
2022-08-21T09:00:44.584Z,22.50
2022-08-21T09:02:49.546Z,22.60
2022-08-21T09:04:53.424Z,22.70
2022-08-21T09:09:37.917Z,22.70
2022-08-21T09:11:48.407Z,22.70
2022-08-21T09:13:57.204Z,22.40
2022-08-21T09:16:04.832Z,22.00
2022-08-21T09:18:23.588Z,21.80
2022-08-21T09:20:32.863Z,21.60
2022-08-21T09:22:41.182Z,21.60
2022-08-21T09:24:52.084Z,21.70
2022-08-21T09:27:01.049Z,22.00
2022-08-21T09:29:06.239Z,22.10
2022-08-21T09:31:14.480Z,22.20
2022-08-21T09:33:18.247Z,22.40
2022-08-21T09:35:24.481Z,22.80
2022-08-21T09:37:30.667Z,22.80
2022-08-21T09:39:41.894Z,22.60
2022-08-21T09:41:45.301Z,22.40
2022-08-21T09:43:54.727Z,22.10
2022-08-21T09:46:08.328Z,22.00
2022-08-21T09:48:14.505Z,22.30
2022-08-21T09:50:20.738Z,22.70
2022-08-21T09:52:26.332Z,23.20
2022-08-21T09:54:33.470Z,23.30
2022-08-21T09:56:58.699Z,23.50
2022-08-21T09:59:02.296Z,23.40
2022-08-21T10:01:09.553Z,23.40
2022-08-21T10:03:17.140Z,23.50
2022-08-21T10:05:23.645Z,23.60
2022-08-21T10:07:30.187Z,23.70
2022-08-21T10:09:33.772Z,23.90
2022-08-21T10:13:57.176Z,24.10
2022-08-21T10:16:09.272Z,24.30
2022-08-21T10:18:16.503Z,24.00
2022-08-21T10:20:23.695Z,23.90
2022-08-21T10:22:34.923Z,23.50
2022-08-21T10:24:43.005Z,23.60
2022-08-21T10:26:51.584Z,23.70
2022-08-21T10:28:59.686Z,23.70
2022-08-21T10:31:07.071Z,23.80
2022-08-21T10:33:19.602Z,24.10
2022-08-21T10:35:29.156Z,23.90
2022-08-21T10:37:39.636Z,23.90
2022-08-21T10:39:48.055Z,24.00
2022-08-21T10:42:11.967Z,24.20
2022-08-21T10:44:22.591Z,24.20
2022-08-21T10:46:31.127Z,24.10
2022-08-21T10:48:39.233Z,23.90
2022-08-21T10:53:12.178Z,24.10
2022-08-21T10:55:18.992Z,24.40
2022-08-21T10:57:29.803Z,24.50
2022-08-21T10:59:38.773Z,24.20
2022-08-21T11:04:07.868Z,24.50
2022-08-21T11:06:15.171Z,24.70
2022-08-21T11:08:22.487Z,24.40
2022-08-21T11:10:30.115Z,24.20
2022-08-21T11:14:59.022Z,24.10
2022-08-21T11:19:41.726Z,24.50
2022-08-21T11:24:48.143Z,24.60
2022-08-21T11:27:23.523Z,24.50
2022-08-21T11:32:36.711Z,24.60
2022-08-21T11:35:08.402Z,24.60
2022-08-21T11:37:39.635Z,24.60
2022-08-21T11:40:09.625Z,24.90
2022-08-21T11:42:19.483Z,25.40
2022-08-21T11:44:27.559Z,25.70
2022-08-21T11:46:35.505Z,25.70
2022-08-21T11:51:01.592Z,25.40
2022-08-21T11:53:10.339Z,25.20
2022-08-21T11:55:18.126Z,25.20
2022-08-21T11:57:26.848Z,25.50
2022-08-21T11:59:40.136Z,25.40
2022-08-21T12:01:44.968Z,25.40
2022-08-21T12:03:57.756Z,25.20
2022-08-21T12:06:04.483Z,25.10
2022-08-21T12:08:13.609Z,25.20
2022-08-21T12:10:21.498Z,25.20
2022-08-21T12:12:30.451Z,25.30
2022-08-21T12:14:42.949Z,25.30
2022-08-21T12:16:48.336Z,25.40
2022-08-21T12:21:23.363Z,25.30
2022-08-21T12:23:31.136Z,25.20
2022-08-21T12:25:42.126Z,25.40
2022-08-21T12:27:49.556Z,25.40
2022-08-21T12:32:27.670Z,25.40
2022-08-21T12:34:36.463Z,25.40
2022-08-21T12:36:45.781Z,25.20
2022-08-21T12:38:52.594Z,25.40
2022-08-21T12:43:18.215Z,25.40
2022-08-21T12:45:25.539Z,25.50
2022-08-21T12:47:32.541Z,25.40
2022-08-21T12:49:58.230Z,25.40
2022-08-21T12:52:09.302Z,25.30
2022-08-21T12:54:30.709Z,25.20
2022-08-21T12:56:36.568Z,25.30
2022-08-21T12:58:43.748Z,25.30
2022-08-21T13:00:53.125Z,25.40
2022-08-21T13:02:57.748Z,25.30
2022-08-21T13:05:04.370Z,25.30
2022-08-21T13:07:11.595Z,25.40
2022-08-21T13:09:19.103Z,25.50
2022-08-21T13:11:32.628Z,25.50
2022-08-21T13:13:30.934Z,25.70
2022-08-21T13:15:38.499Z,25.80
2022-08-21T13:20:22.820Z,25.80
2022-08-21T13:22:33.572Z,26.00
2022-08-21T13:24:42.836Z,26.00
2022-08-21T13:26:44.269Z,26.00
2022-08-21T13:28:50.247Z,25.90
2022-08-21T13:30:56.464Z,25.80
2022-08-21T13:33:03.379Z,26.00
2022-08-21T13:35:16.114Z,26.00
2022-08-21T13:39:39.018Z,25.80
2022-08-21T13:41:46.330Z,25.70
2022-08-21T13:43:54.024Z,25.60
2022-08-21T13:48:15.547Z,25.70
2022-08-21T13:50:22.197Z,25.80
2022-08-21T13:52:29.405Z,25.90
2022-08-21T13:56:53.608Z,25.90
2022-08-21T13:59:00.683Z,25.80
2022-08-21T14:01:06.824Z,25.70
2022-08-21T14:03:14.083Z,25.70
2022-08-21T14:07:38.699Z,25.80
2022-08-21T14:09:44.818Z,25.90
2022-08-21T14:11:49.571Z,26.00
2022-08-21T14:13:59.478Z,26.00
2022-08-21T14:16:06.488Z,26.00
2022-08-21T14:18:13.353Z,25.90
2022-08-21T14:20:30.416Z,26.00
2022-08-21T14:25:02.969Z,26.20
2022-08-21T14:27:08.814Z,26.20
2022-08-21T14:29:16.797Z,26.20
2022-08-21T14:33:37.981Z,26.20
2022-08-21T14:37:58.096Z,26.10
2022-08-21T14:40:03.315Z,26.00
2022-08-21T14:42:08.915Z,26.10
2022-08-21T14:46:32.894Z,26.00
2022-08-21T14:48:37.786Z,26.20
2022-08-21T14:53:26.623Z,26.00
2022-08-21T14:55:37.726Z,25.90
2022-08-21T14:57:46.429Z,25.80
2022-08-21T14:59:51.430Z,25.60
2022-08-21T15:01:56.589Z,25.60
2022-08-21T15:04:00.657Z,25.60
2022-08-21T15:06:07.378Z,25.50
2022-08-21T15:08:11.323Z,25.30
2022-08-21T15:10:15.840Z,25.30
2022-08-21T15:12:20.024Z,25.20
2022-08-21T15:14:25.724Z,25.10
2022-08-21T15:16:31.667Z,25.00
2022-08-21T15:20:49.999Z,24.90
2022-08-21T15:22:54.103Z,24.80
2022-08-21T15:24:58.551Z,24.70
2022-08-21T15:27:04.479Z,24.60
2022-08-21T15:29:09.400Z,24.50
2022-08-21T15:31:14.687Z,24.50
2022-08-21T15:33:18.845Z,24.40
2022-08-21T15:35:23.251Z,24.40
2022-08-21T15:37:27.388Z,24.40
2022-08-21T15:39:31.585Z,24.30
2022-08-21T15:41:36.728Z,24.20
2022-08-21T15:43:44.404Z,24.20
2022-08-21T15:48:06.411Z,24.30
2022-08-21T15:50:13.464Z,24.30
2022-08-21T15:52:25.670Z,24.30
2022-08-21T15:54:30.715Z,24.30
2022-08-21T15:56:42.774Z,24.30
2022-08-21T16:01:04.231Z,24.30
2022-08-21T16:03:12.386Z,24.40
2022-08-21T16:05:17.586Z,24.40
2022-08-21T16:07:21.294Z,24.40
2022-08-21T16:09:25.031Z,24.40
2022-08-21T16:11:29.248Z,24.50
2022-08-21T16:13:36.737Z,24.60
2022-08-21T16:15:40.916Z,24.70
2022-08-21T16:20:07.750Z,25.00
2022-08-21T16:22:11.566Z,25.30
2022-08-21T16:24:15.198Z,25.60
2022-08-21T16:26:18.842Z,25.90
2022-08-21T16:30:40.284Z,26.20
2022-08-21T16:32:44.398Z,26.20
2022-08-21T16:37:03.852Z,26.20
2022-08-21T16:39:07.445Z,26.20
2022-08-21T16:41:14.674Z,26.20
2022-08-21T16:43:18.252Z,26.20
2022-08-21T16:45:22.290Z,26.30
2022-08-21T16:47:26.680Z,26.30
2022-08-21T16:49:31.681Z,26.10
2022-08-21T16:51:35.483Z,25.80
2022-08-21T16:53:39.180Z,25.50
2022-08-21T16:55:43.406Z,25.30
2022-08-21T16:57:47.050Z,25.20
2022-08-21T17:02:12.568Z,25.00
2022-08-21T17:04:16.302Z,24.90
2022-08-21T17:06:21.131Z,25.00
2022-08-21T17:08:24.751Z,25.00
2022-08-21T17:10:28.354Z,25.00
2022-08-21T17:12:32.029Z,25.00
2022-08-21T17:14:37.147Z,24.90
2022-08-21T17:16:43.435Z,24.80
2022-08-21T17:18:47.617Z,24.70
2022-08-21T17:20:53.382Z,24.60
2022-08-21T17:22:57.260Z,24.60
2022-08-21T17:25:00.960Z,24.40
2022-08-21T17:27:06.832Z,24.30
2022-08-21T17:29:12.703Z,24.20
2022-08-21T17:31:16.689Z,24.20
2022-08-21T17:33:20.683Z,24.20
2022-08-21T17:35:24.443Z,24.10
2022-08-21T17:37:29.473Z,24.00
2022-08-21T17:39:33.292Z,24.00
2022-08-21T17:41:36.999Z,24.00
2022-08-21T17:43:40.881Z,23.80
2022-08-21T17:45:45.255Z,23.80
2022-08-21T17:47:48.858Z,23.70
2022-08-21T17:49:52.663Z,23.70
2022-08-21T17:51:56.297Z,23.60
2022-08-21T17:53:59.847Z,23.50
2022-08-21T17:56:04.478Z,23.50
2022-08-21T18:00:27.260Z,23.40
2022-08-21T18:02:31.267Z,23.40
2022-08-21T18:04:34.890Z,23.30
2022-08-21T18:06:39.103Z,23.20
2022-08-21T18:08:42.628Z,23.20
2022-08-21T18:10:48.997Z,23.10
2022-08-21T18:12:53.182Z,23.00
2022-08-21T18:14:56.856Z,23.00
2022-08-21T18:17:00.860Z,22.80
2022-08-21T18:19:07.551Z,22.70
2022-08-21T18:21:11.211Z,22.70
2022-08-21T18:23:15.031Z,22.60
2022-08-21T18:25:19.479Z,22.60
2022-08-21T18:27:26.766Z,22.50
2022-08-21T18:29:29.422Z,22.50
2022-08-21T18:31:39.605Z,22.40
2022-08-21T18:33:43.654Z,22.40
2022-08-21T18:35:49.138Z,22.40
2022-08-21T18:37:53.408Z,22.30
2022-08-21T18:39:56.979Z,22.30
2022-08-21T18:42:02.550Z,22.30
2022-08-21T18:44:06.203Z,22.20
2022-08-21T18:46:10.124Z,22.20
2022-08-21T18:48:15.541Z,22.10
2022-08-21T18:52:43.348Z,22.00
2022-08-21T18:54:45.690Z,21.90
2022-08-21T18:56:54.674Z,21.80
2022-08-21T18:58:58.327Z,21.80
2022-08-21T19:01:02.135Z,21.70
2022-08-21T19:03:08.087Z,21.70
2022-08-21T19:05:14.424Z,21.60
2022-08-21T19:09:34.077Z,21.60
2022-08-21T19:11:43.140Z,21.50
2022-08-21T19:13:45.554Z,21.40
2022-08-21T19:15:52.512Z,21.40
2022-08-21T19:17:56.650Z,21.30
2022-08-21T19:20:03.955Z,21.30
2022-08-21T19:22:11.164Z,21.10
2022-08-21T19:26:19.114Z,21.00
2022-08-21T19:28:29.199Z,21.00
2022-08-21T19:30:32.968Z,21.00
2022-08-21T19:32:38.760Z,21.00
2022-08-21T19:34:44.172Z,20.90
2022-08-21T19:36:47.908Z,20.90
2022-08-21T19:38:51.481Z,20.80
2022-08-21T19:40:55.861Z,20.70
2022-08-21T19:43:00.397Z,20.60
2022-08-21T19:45:05.840Z,20.50
2022-08-21T19:47:13.034Z,20.50
2022-08-21T19:51:37.488Z,20.30
2022-08-21T19:53:42.837Z,20.30
2022-08-21T19:55:48.578Z,20.20
2022-08-21T19:57:54.064Z,20.20
2022-08-21T19:59:57.675Z,20.10
2022-08-21T20:02:01.211Z,20.10
2022-08-21T20:04:05.724Z,20.00
2022-08-21T20:06:12.719Z,19.80
2022-08-21T20:10:35.501Z,19.80
2022-08-21T20:12:59.476Z,19.80
2022-08-21T20:15:07.759Z,19.70
2022-08-21T20:17:14.686Z,19.70
2022-08-21T20:19:19.640Z,19.60
2022-08-21T20:23:43.103Z,19.30
2022-08-21T20:25:47.246Z,19.30
2022-08-21T20:27:50.829Z,19.30
2022-08-21T20:29:54.656Z,19.20
2022-08-21T20:31:59.946Z,19.20
2022-08-21T20:34:03.641Z,19.20
2022-08-21T20:36:08.840Z,19.30
2022-08-21T20:38:13.362Z,19.20
2022-08-21T20:40:20.986Z,19.30
2022-08-21T20:42:23.624Z,19.20
2022-08-21T20:44:30.871Z,19.20
2022-08-21T20:46:35.771Z,19.20
2022-08-21T20:48:49.063Z,19.10
2022-08-21T20:50:49.032Z,19.00
2022-08-21T20:52:56.368Z,19.00
2022-08-21T20:55:03.324Z,18.90
2022-08-21T21:01:38.473Z,18.80
2022-08-21T21:03:45.304Z,18.80
2022-08-21T21:05:52.700Z,18.80
2022-08-21T21:08:01.043Z,18.80
2022-08-21T21:10:09.006Z,18.80
2022-08-21T21:12:18.046Z,18.70
2022-08-21T21:14:27.476Z,18.70
2022-08-21T21:16:35.063Z,18.60
2022-08-21T21:21:03.128Z,18.30
2022-08-21T21:23:16.989Z,18.30
2022-08-21T21:25:25.460Z,18.20
2022-08-21T21:29:52.788Z,18.10
2022-08-21T21:31:56.917Z,18.10
2022-08-21T21:34:00.581Z,18.00
2022-08-21T21:36:10.379Z,18.00
2022-08-21T21:38:19.264Z,17.90
2022-08-21T21:40:33.024Z,17.90
2022-08-21T21:42:40.988Z,17.90
2022-08-21T21:44:53.406Z,17.80
2022-08-21T21:47:03.709Z,17.80
2022-08-21T21:51:39.176Z,17.70
2022-08-21T21:53:51.672Z,17.80
2022-08-21T21:56:02.124Z,17.70
2022-08-21T21:58:20.379Z,17.80
2022-08-21T22:02:51.200Z,17.80
2022-08-21T22:05:00.579Z,17.80
2022-08-21T22:07:09.304Z,17.90
2022-08-21T22:09:17.935Z,17.90
2022-08-21T22:13:38.667Z,17.80
2022-08-21T22:15:41.509Z,17.70
2022-08-21T22:17:48.760Z,17.70
2022-08-21T22:19:55.044Z,17.60
2022-08-21T22:22:01.616Z,17.60
2022-08-21T22:24:11.534Z,17.60
2022-08-21T22:26:18.871Z,17.70
2022-08-21T22:28:25.929Z,17.70
2022-08-21T22:30:43.055Z,17.70
2022-08-21T22:32:50.451Z,17.60
2022-08-21T22:35:09.620Z,17.60
2022-08-21T22:37:12.820Z,17.60
2022-08-21T22:39:19.171Z,17.60
2022-08-21T22:41:28.005Z,17.50
2022-08-21T22:43:32.587Z,17.50
2022-08-21T22:45:41.512Z,17.50
2022-08-21T22:47:48.276Z,17.50
2022-08-21T22:50:04.945Z,17.30
2022-08-21T22:52:23.504Z,17.30
2022-08-21T22:54:34.417Z,17.30
2022-08-21T22:56:40.978Z,17.20
2022-08-21T22:58:57.270Z,17.20
2022-08-21T23:01:04.664Z,17.10
2022-08-21T23:03:16.492Z,17.20
2022-08-21T23:05:19.838Z,17.20
2022-08-21T23:07:43.554Z,17.20
2022-08-21T23:09:48.021Z,17.20
2022-08-21T23:11:54.929Z,17.10
2022-08-21T23:14:00.206Z,17.10
2022-08-21T23:16:08.433Z,17.10
2022-08-21T23:20:34.892Z,17.20
2022-08-21T23:22:42.482Z,17.30
2022-08-21T23:24:57.785Z,17.20
2022-08-21T23:29:24.826Z,17.10
2022-08-21T23:31:28.717Z,17.10
2022-08-21T23:34:05.920Z,17.10
2022-08-21T23:36:31.242Z,17.10
2022-08-21T23:38:42.937Z,17.00
2022-08-21T23:43:13.562Z,16.90
2022-08-21T23:45:22.431Z,16.70
2022-08-21T23:49:53.783Z,16.40
2022-08-21T23:52:05.371Z,16.40
2022-08-21T23:54:12.852Z,16.40
